Time,TemperatureF,DewpointF,PressureIn,WindDirection,WindDirectionDegrees,WindSpeedMPH,WindSpeedGustMPH,Humidity,HourlyPrecipIn,Conditions,Clouds,dailyrainin,SoftwareType,DateUTC
2013-05-09 00:00:00,58.7,57.3,29.91,NE,44,0.0,0.0,95,0.00,,,0.00,Wunderground v.1.15,2013-05-09 04:00:00,
2013-05-09 00:05:00,58.7,57.3,29.91,NE,44,0.0,0.0,95,0.00,,,0.00,Wunderground v.1.15,2013-05-09 04:05:00,
2013-05-09 00:10:00,58.7,57.3,29.91,NE,44,0.0,0.0,95,0.00,,,0.00,Wunderground v.1.15,2013-05-09 04:10:00,
2013-05-09 00:15:00,58.6,57.2,29.91,NE,44,0.0,0.0,95,0.00,,,0.00,Wunderground v.1.15,2013-05-09 04:15:00,
2013-05-09 00:25:00,58.7,57.3,29.91,NE,44,0.0,0.0,95,0.00,,,0.00,Wunderground v.1.15,2013-05-09 04:25:00,
2013-05-09 00:30:00,58.7,57.3,29.91,NE,44,0.0,0.0,95,0.00,,,0.00,Wunderground v.1.15,2013-05-09 04:30:00,
2013-05-09 00:35:00,58.6,57.2,29.91,NE,44,0.0,0.0,95,0.00,,,0.00,Wunderground v.1.15,2013-05-09 04:35:00,
2013-05-09 00:45:00,58.5,57.1,29.90,NE,44,0.0,0.0,95,0.00,,,0.01,Wunderground v.1.15,2013-05-09 04:45:00,
2013-05-09 00:50:00,58.4,57.0,29.90,NE,44,0.0,0.0,95,0.00,,,0.01,Wunderground v.1.15,2013-05-09 04:50:00,
2013-05-09 01:00:00,58.4,57.0,29.90,NNE,24,0.0,0.0,95,0.00,,,0.01,Wunderground v.1.15,2013-05-09 05:00:00,
2013-05-09 01:10:00,58.4,57.0,29.90,NNE,25,0.0,0.0,95,0.00,,,0.01,Wunderground v.1.15,2013-05-09 05:10:00,
2013-05-09 01:20:00,58.4,57.0,29.89,NNE,25,0.0,0.0,95,0.00,,,0.01,Wunderground v.1.15,2013-05-09 05:20:00,
2013-05-09 01:30:00,58.3,57.2,29.89,NNE,25,0.0,0.0,96,0.00,,,0.01,Wunderground v.1.15,2013-05-09 05:30:00,
2013-05-09 01:35:00,58.3,57.2,29.89,NNE,25,0.0,0.0,96,0.00,,,0.01,Wunderground v.1.15,2013-05-09 05:35:00,
2013-05-09 01:40:00,58.2,57.1,29.89,NNE,24,0.0,0.0,96,0.00,,,0.01,Wunderground v.1.15,2013-05-09 05:40:00,
2013-05-09 01:50:00,58.2,57.1,29.88,NNE,24,0.0,0.0,96,0.00,,,0.01,Wunderground v.1.15,2013-05-09 05:50:00,
2013-05-09 01:55:00,58.1,57.0,29.89,NNE,25,0.0,0.0,96,0.00,,,0.01,Wunderground v.1.15,2013-05-09 05:55:00,
2013-05-09 02:01:00,58.2,57.1,29.89,NNE,25,0.0,0.0,96,0.00,,,0.01,Wunderground v.1.15,2013-05-09 06:01:00,
2013-05-09 02:10:00,58.2,57.1,29.89,NNE,24,0.0,0.0,96,0.00,,,0.01,Wunderground v.1.15,2013-05-09 06:10:00,
2013-05-09 02:15:00,58.2,57.1,29.88,NNE,25,0.0,0.0,96,0.00,,,0.01,Wunderground v.1.15,2013-05-09 06:15:00,
2013-05-09 02:20:00,58.2,57.1,29.88,NNE,25,0.0,0.0,96,0.00,,,0.01,Wunderground v.1.15,2013-05-09 06:20:00,
2013-05-09 02:30:00,58.2,57.1,29.88,NNE,24,0.0,0.0,96,0.00,,,0.01,Wunderground v.1.15,2013-05-09 06:30:00,
2013-05-09 02:35:00,58.1,57.0,29.88,NNE,25,0.0,0.0,96,0.00,,,0.01,Wunderground v.1.15,2013-05-09 06:35:00,
2013-05-09 02:45:00,58.0,56.9,29.88,NNW,330,0.0,1.0,96,0.00,,,0.01,Wunderground v.1.15,2013-05-09 06:45:00,
2013-05-09 02:50:00,57.8,56.7,29.88,NW,315,0.0,1.0,96,0.00,,,0.01,Wunderground v.1.15,2013-05-09 06:50:00,
2013-05-09 02:55:00,57.7,56.6,29.88,NW,323,0.0,1.0,96,0.00,,,0.01,Wunderground v.1.15,2013-05-09 06:55:00,
2013-05-09 03:00:00,57.6,56.5,29.88,North,350,0.0,0.0,96,0.00,,,0.01,Wunderground v.1.15,2013-05-09 07:00:00,
2013-05-09 03:10:00,57.5,56.4,29.88,North,349,0.0,0.0,96,0.00,,,0.01,Wunderground v.1.15,2013-05-09 07:10:00,
2013-05-09 03:20:00,57.5,56.4,29.88,North,349,0.0,0.0,96,0.00,,,0.01,Wunderground v.1.15,2013-05-09 07:20:00,
2013-05-09 03:30:00,57.5,56.4,29.88,NW,324,0.0,0.0,96,0.00,,,0.01,Wunderground v.1.15,2013-05-09 07:30:00,
2013-05-09 03:35:00,57.4,56.3,29.88,NNW,342,0.0,0.0,96,0.00,,,0.01,Wunderground v.1.15,2013-05-09 07:35:00,
2013-05-09 03:45:00,57.2,56.1,29.87,NNW,341,0.0,0.0,96,0.00,,,0.01,Wunderground v.1.15,2013-05-09 07:45:00,
2013-05-09 03:50:00,57.1,56.0,29.87,NNW,341,0.0,0.0,96,0.00,,,0.01,Wunderground v.1.15,2013-05-09 07:50:00,
2013-05-09 04:00:00,57.0,55.9,29.87,NNW,342,0.0,0.0,96,0.00,,,0.01,Wunderground v.1.15,2013-05-09 08:00:00,
2013-05-09 04:05:00,56.9,55.8,29.87,NNW,341,0.0,0.0,96,0.00,,,0.01,Wunderground v.1.15,2013-05-09 08:05:00,
2013-05-09 04:10:00,56.9,55.8,29.87,NNW,341,0.0,0.0,96,0.00,,,0.01,Wunderground v.1.15,2013-05-09 08:10:00,
2013-05-09 04:20:00,56.8,55.7,29.87,NNW,342,0.0,0.0,96,0.00,,,0.01,Wunderground v.1.15,2013-05-09 08:20:00,
2013-05-09 04:30:00,56.7,55.6,29.87,NW,316,0.0,0.0,96,0.00,,,0.01,Wunderground v.1.15,2013-05-09 08:30:00,
2013-05-09 04:35:00,56.6,55.5,29.87,NW,321,0.0,0.0,96,0.00,,,0.01,Wunderground v.1.15,2013-05-09 08:35:00,
2013-05-09 04:45:00,56.5,55.4,29.87,NNE,14,0.0,0.0,96,0.00,,,0.01,Wunderground v.1.15,2013-05-09 08:45:00,
2013-05-09 04:55:00,56.1,55.0,29.87,NNE,17,0.0,0.0,96,0.00,,,0.01,Wunderground v.1.15,2013-05-09 08:55:00,
2013-05-09 05:01:00,56.1,55.0,29.87,NNE,13,0.0,0.0,96,0.00,,,0.01,Wunderground v.1.15,2013-05-09 09:01:00,
2013-05-09 05:10:00,56.0,54.9,29.87,NNW,338,0.0,0.0,96,0.00,,,0.01,Wunderground v.1.15,2013-05-09 09:10:00,
2013-05-09 05:15:00,56.0,54.9,29.87,NNW,336,0.0,0.0,96,0.00,,,0.01,Wunderground v.1.15,2013-05-09 09:15:00,
2013-05-09 05:25:00,56.0,54.9,29.87,NNW,329,0.0,0.0,96,0.00,,,0.01,Wunderground v.1.15,2013-05-09 09:25:00,
2013-05-09 05:30:00,55.9,54.8,29.87,WSW,252,0.0,0.0,96,0.00,,,0.01,Wunderground v.1.15,2013-05-09 09:30:00,
2013-05-09 05:40:00,55.8,54.7,29.87,WSW,252,0.0,0.0,96,0.00,,,0.01,Wunderground v.1.15,2013-05-09 09:40:00,
2013-05-09 05:45:00,55.8,55.0,29.87,NW,316,0.0,0.0,97,0.00,,,0.02,Wunderground v.1.15,2013-05-09 09:45:00,
2013-05-09 05:55:00,55.7,54.9,29.87,NW,312,0.0,1.0,97,0.06,,,0.03,Wunderground v.1.15,2013-05-09 09:55:00,
2013-05-09 06:05:00,55.5,54.7,29.87,West,276,0.0,0.0,97,0.00,,,0.03,Wunderground v.1.15,2013-05-09 10:05:00,
2013-05-09 06:10:00,55.5,54.7,29.88,West,276,0.0,0.0,97,0.00,,,0.03,Wunderground v.1.15,2013-05-09 10:10:00,
2013-05-09 06:15:00,55.6,54.8,29.87,West,275,0.0,1.0,97,0.00,,,0.03,Wunderground v.1.15,2013-05-09 10:15:00,
2013-05-09 06:25:00,55.6,54.8,29.88,WSW,245,0.0,0.0,97,0.00,,,0.03,Wunderground v.1.15,2013-05-09 10:25:00,
2013-05-09 06:35:00,55.6,54.8,29.88,WSW,245,0.0,0.0,97,0.00,,,0.03,Wunderground v.1.15,2013-05-09 10:35:00,
2013-05-09 06:40:00,55.6,54.8,29.88,West,269,0.0,0.0,97,0.00,,,0.03,Wunderground v.1.15,2013-05-09 10:40:00,
2013-05-09 06:45:00,55.6,54.8,29.88,West,269,0.0,0.0,97,0.00,,,0.03,Wunderground v.1.15,2013-05-09 10:45:00,
2013-05-09 06:55:00,55.7,54.9,29.88,West,269,0.0,0.0,97,0.00,,,0.03,Wunderground v.1.15,2013-05-09 10:55:00,
2013-05-09 07:00:00,55.8,55.0,29.89,WSW,238,0.0,0.0,97,0.00,,,0.03,Wunderground v.1.15,2013-05-09 11:00:00,
2013-05-09 07:10:00,55.8,55.0,29.89,WSW,249,0.0,0.0,97,0.00,,,0.03,Wunderground v.1.15,2013-05-09 11:10:00,
2013-05-09 07:20:00,55.9,55.1,29.89,SW,215,0.0,0.0,97,0.00,,,0.03,Wunderground v.1.15,2013-05-09 11:20:00,
2013-05-09 07:30:00,56.1,55.3,29.89,SW,215,0.0,0.0,97,0.00,,,0.03,Wunderground v.1.15,2013-05-09 11:30:00,
2013-05-09 07:40:00,56.2,55.4,29.90,SW,215,0.0,0.0,97,0.00,,,0.03,Wunderground v.1.15,2013-05-09 11:40:00,
2013-05-09 07:45:00,56.3,55.5,29.90,WSW,248,0.0,0.0,97,0.00,,,0.03,Wunderground v.1.15,2013-05-09 11:45:00,
2013-05-09 07:55:00,56.5,55.7,29.89,WSW,248,0.0,0.0,97,0.00,,,0.03,Wunderground v.1.15,2013-05-09 11:55:00,
2013-05-09 08:01:00,56.5,55.7,29.89,WSW,248,0.0,0.0,97,0.00,,,0.03,Wunderground v.1.15,2013-05-09 12:01:00,
2013-05-09 08:10:00,56.9,56.1,29.90,SSW,210,0.0,0.0,97,0.00,,,0.04,Wunderground v.1.15,2013-05-09 12:10:00,
2013-05-09 08:20:00,57.1,56.3,29.90,North,1,0.0,0.0,97,0.06,,,0.05,Wunderground v.1.15,2013-05-09 12:20:00,
2013-05-09 08:30:00,57.2,56.4,29.91,NNE,16,0.0,0.0,97,0.77,,,0.08,Wunderground v.1.15,2013-05-09 12:30:00,
2013-05-09 08:40:00,57.5,56.7,29.91,NNE,25,0.0,0.0,97,0.06,,,0.08,Wunderground v.1.15,2013-05-09 12:40:00,
2013-05-09 08:45:00,57.5,56.7,29.91,WSW,257,0.0,1.0,97,0.04,,,0.08,Wunderground v.1.15,2013-05-09 12:45:00,
2013-05-09 08:55:00,57.9,57.1,29.91,NW,325,0.0,0.0,97,0.00,,,0.08,Wunderground v.1.15,2013-05-09 12:55:00,
2013-05-09 09:00:00,58.1,57.3,29.91,WSW,249,0.0,0.0,97,0.00,,,0.08,Wunderground v.1.15,2013-05-09 13:00:00,
2013-05-09 09:10:00,58.5,57.7,29.91,WSW,242,0.0,0.0,97,0.00,,,0.08,Wunderground v.1.15,2013-05-09 13:10:00,
2013-05-09 09:20:00,58.6,57.5,29.92,SW,235,0.0,0.0,96,0.00,,,0.08,Wunderground v.1.15,2013-05-09 13:20:00,
2013-05-09 09:25:00,58.7,57.6,29.92,SSW,198,0.0,1.0,96,0.00,,,0.08,Wunderground v.1.15,2013-05-09 13:25:00,
2013-05-09 09:35:00,58.9,57.8,29.91,SSW,204,0.0,0.0,96,0.00,,,0.08,Wunderground v.1.15,2013-05-09 13:35:00,
2013-05-09 09:45:00,59.3,58.2,29.91,SSE,156,0.0,0.0,96,0.00,,,0.08,Wunderground v.1.15,2013-05-09 13:45:00,
2013-05-09 09:55:00,59.4,58.0,29.91,SSE,167,0.0,0.0,95,0.00,,,0.08,Wunderground v.1.15,2013-05-09 13:55:00,
2013-05-09 10:00:00,59.8,58.7,29.91,SSE,160,0.0,2.0,96,0.00,,,0.08,Wunderground v.1.15,2013-05-09 14:00:00,
2013-05-09 10:05:00,60.2,59.1,29.91,West,271,1.0,2.0,96,0.00,,,0.08,Wunderground v.1.15,2013-05-09 14:05:00,
2013-05-09 10:15:00,61.0,59.6,29.91,SW,235,0.0,0.0,95,0.00,,,0.08,Wunderground v.1.15,2013-05-09 14:15:00,
2013-05-09 10:25:00,61.6,59.9,29.91,WSW,242,0.0,0.0,94,0.00,,,0.08,Wunderground v.1.15,2013-05-09 14:25:00,
2013-05-09 10:30:00,61.7,59.7,29.91,WSW,241,0.0,0.0,93,0.00,,,0.09,Wunderground v.1.15,2013-05-09 14:30:00,
2013-05-09 10:40:00,62.1,60.1,29.92,WSW,241,0.0,0.0,93,0.00,,,0.09,Wunderground v.1.15,2013-05-09 14:40:00,
2013-05-09 10:45:00,62.3,59.9,29.92,WSW,245,0.0,0.0,92,0.00,,,0.09,Wunderground v.1.15,2013-05-09 14:45:00,
2013-05-09 10:50:00,62.4,60.0,29.91,WSW,245,0.0,0.0,92,0.00,,,0.09,Wunderground v.1.15,2013-05-09 14:50:00,
2013-05-09 11:01:00,62.2,59.5,29.92,NW,324,1.0,1.0,91,0.00,,,0.09,Wunderground v.1.15,2013-05-09 15:01:00,
2013-05-09 11:10:00,62.0,59.0,29.92,WSW,252,1.0,1.0,90,0.00,,,0.09,Wunderground v.1.15,2013-05-09 15:10:00,
2013-05-09 11:15:00,62.0,59.3,29.92,NNE,22,1.0,1.0,91,0.00,,,0.09,Wunderground v.1.15,2013-05-09 15:15:00,
2013-05-09 11:25:00,61.9,58.6,29.92,SSE,154,1.0,2.0,89,0.00,,,0.09,Wunderground v.1.15,2013-05-09 15:25:00,
2013-05-09 11:35:00,61.3,58.7,29.92,South,177,1.0,2.0,91,0.00,,,0.09,Wunderground v.1.15,2013-05-09 15:35:00,
2013-05-09 11:45:00,61.2,58.9,29.92,WSW,246,2.0,3.0,92,0.00,,,0.09,Wunderground v.1.15,2013-05-09 15:45:00,
2013-05-09 11:55:00,61.1,58.5,29.92,SE,135,1.0,1.0,91,0.00,,,0.09,Wunderground v.1.15,2013-05-09 15:55:00,
2013-05-09 12:00:00,61.1,58.5,29.92,SSW,195,1.0,1.0,91,0.00,,,0.09,Wunderground v.1.15,2013-05-09 16:00:00,
2013-05-09 12:10:00,61.1,58.5,29.92,SSE,150,2.0,5.0,91,0.00,,,0.09,Wunderground v.1.15,2013-05-09 16:10:00,
2013-05-09 12:20:00,61.6,58.3,29.92,SE,133,2.0,5.0,89,0.00,,,0.09,Wunderground v.1.15,2013-05-09 16:20:00,
2013-05-09 12:30:00,61.2,57.9,29.92,WSW,250,2.0,3.0,89,0.00,,,0.09,Wunderground v.1.15,2013-05-09 16:30:00,
2013-05-09 12:35:00,61.3,58.0,29.93,SW,235,2.0,3.0,89,0.00,,,0.09,Wunderground v.1.15,2013-05-09 16:35:00,
2013-05-09 12:45:00,60.7,57.1,29.93,SSW,208,2.0,2.0,88,0.00,,,0.09,Wunderground v.1.15,2013-05-09 16:45:00,
2013-05-09 12:55:00,61.1,57.8,29.92,South,190,2.0,3.0,89,0.00,,,0.09,Wunderground v.1.15,2013-05-09 16:55:00,
2013-05-09 13:05:00,62.0,58.1,29.92,SW,214,3.0,5.0,87,0.00,,,0.09,Wunderground v.1.15,2013-05-09 17:05:00,
2013-05-09 13:10:00,62.2,58.0,29.92,SW,219,3.0,5.0,86,0.00,,,0.09,Wunderground v.1.15,2013-05-09 17:10:00,
2013-05-09 13:20:00,63.4,59.1,29.92,SSW,212,3.0,4.0,86,0.00,,,0.09,Wunderground v.1.15,2013-05-09 17:20:00,
2013-05-09 13:25:00,64.1,58.5,29.92,South,172,3.0,4.0,82,0.00,,,0.09,Wunderground v.1.15,2013-05-09 17:25:00,
2013-05-09 13:30:00,63.3,58.0,29.92,SE,141,3.0,3.0,83,0.00,,,0.09,Wunderground v.1.15,2013-05-09 17:30:00,
2013-05-09 13:40:00,62.6,57.7,29.92,SE,139,3.0,3.0,84,0.00,,,0.09,Wunderground v.1.15,2013-05-09 17:40:00,
2013-05-09 13:45:00,62.3,57.4,29.92,SSE,156,3.0,3.0,84,0.00,,,0.09,Wunderground v.1.15,2013-05-09 17:45:00,
2013-05-09 13:55:00,62.0,57.8,29.92,SSE,150,2.0,2.0,86,0.00,,,0.09,Wunderground v.1.15,2013-05-09 17:55:00,
2013-05-09 14:01:00,61.7,57.1,29.92,SE,131,2.0,2.0,85,0.00,,,0.09,Wunderground v.1.15,2013-05-09 18:01:00,
2013-05-09 14:10:00,60.9,56.4,29.92,SSW,205,3.0,4.0,85,0.00,,,0.09,Wunderground v.1.15,2013-05-09 18:10:00,
2013-05-09 14:15:00,60.4,56.5,29.92,SW,217,3.0,4.0,87,0.00,,,0.10,Wunderground v.1.15,2013-05-09 18:15:00,
2013-05-09 14:25:00,59.6,56.4,29.92,SSE,148,3.0,3.0,89,0.00,,,0.10,Wunderground v.1.15,2013-05-09 18:25:00,
2013-05-09 14:30:00,59.2,55.6,29.92,ESE,104,3.0,3.0,88,0.00,,,0.10,Wunderground v.1.15,2013-05-09 18:30:00,
2013-05-09 14:40:00,59.3,56.4,29.92,SSE,165,2.0,4.0,90,0.00,,,0.10,Wunderground v.1.15,2013-05-09 18:40:00,
2013-05-09 14:50:00,58.5,55.6,29.93,West,278,3.0,3.0,90,0.00,,,0.10,Wunderground v.1.15,2013-05-09 18:50:00,
2013-05-09 15:00:00,58.1,55.2,29.93,WSW,243,2.0,2.0,90,0.00,,,0.10,Wunderground v.1.15,2013-05-09 19:00:00,
2013-05-09 15:05:00,57.7,54.8,29.93,SSW,212,2.0,3.0,90,0.00,,,0.10,Wunderground v.1.15,2013-05-09 19:05:00,
2013-05-09 15:15:00,57.4,54.8,29.93,South,180,2.0,2.0,91,0.00,,,0.10,Wunderground v.1.15,2013-05-09 19:15:00,
2013-05-09 15:25:00,58.7,56.4,29.93,South,187,3.0,3.0,92,0.00,,,0.10,Wunderground v.1.15,2013-05-09 19:25:00,
2013-05-09 15:35:00,59.2,55.6,29.92,South,176,3.0,3.0,88,0.00,,,0.10,Wunderground v.1.15,2013-05-09 19:35:00,
2013-05-09 15:45:00,58.6,55.1,29.93,SW,228,2.0,4.0,88,0.00,,,0.10,Wunderground v.1.15,2013-05-09 19:45:00,
2013-05-09 15:50:00,58.7,55.5,29.93,SSE,166,1.0,1.0,89,0.00,,,0.10,Wunderground v.1.15,2013-05-09 19:50:00,
2013-05-09 16:00:00,59.4,55.5,29.93,SSW,193,3.0,5.0,87,0.00,,,0.10,Wunderground v.1.15,2013-05-09 20:00:00,
2013-05-09 16:05:00,59.4,55.2,29.92,South,186,3.0,5.0,86,0.00,,,0.10,Wunderground v.1.15,2013-05-09 20:05:00,
2013-05-09 16:15:00,60.7,56.2,29.92,SW,221,2.0,4.0,85,0.00,,,0.10,Wunderground v.1.15,2013-05-09 20:15:00,
2013-05-09 16:25:00,62.4,57.5,29.92,South,185,2.0,4.0,84,0.00,,,0.10,Wunderground v.1.15,2013-05-09 20:25:00,
2013-05-09 16:35:00,63.5,57.6,29.92,SSE,162,2.0,3.0,81,0.00,,,0.10,Wunderground v.1.15,2013-05-09 20:35:00,
2013-05-09 16:45:00,64.2,58.2,29.92,SSW,198,2.0,2.0,81,0.00,,,0.10,Wunderground v.1.15,2013-05-09 20:45:00,
2013-05-09 16:55:00,65.0,57.6,29.92,South,174,2.0,2.0,77,0.00,,,0.10,Wunderground v.1.15,2013-05-09 20:55:00,
2013-05-09 17:01:00,65.6,57.8,29.92,SSW,193,2.0,2.0,76,0.00,,,0.10,Wunderground v.1.15,2013-05-09 21:01:00,
2013-05-09 17:10:00,66.2,57.3,29.91,SE,139,2.0,2.0,73,0.00,,,0.10,Wunderground v.1.15,2013-05-09 21:10:00,
2013-05-09 17:15:00,65.9,57.0,29.91,NNE,12,3.0,3.0,73,0.00,,,0.10,Wunderground v.1.15,2013-05-09 21:15:00,
2013-05-09 17:25:00,66.5,57.2,29.91,South,190,2.0,3.0,72,0.00,,,0.10,Wunderground v.1.15,2013-05-09 21:25:00,
2013-05-09 17:30:00,67.1,57.4,29.91,SSW,210,2.0,3.0,71,0.00,,,0.10,Wunderground v.1.15,2013-05-09 21:30:00,
2013-05-09 17:40:00,67.6,57.5,29.92,SW,229,2.0,4.0,70,0.00,,,0.10,Wunderground v.1.15,2013-05-09 21:40:00,
2013-05-09 17:45:00,66.9,56.8,29.92,ESE,122,2.0,5.0,70,0.00,,,0.10,Wunderground v.1.15,2013-05-09 21:45:00,
2013-05-09 17:55:00,66.2,56.1,29.91,SW,221,2.0,3.0,70,0.00,,,0.10,Wunderground v.1.15,2013-05-09 21:55:00,
2013-05-09 18:00:00,66.0,55.9,29.92,SSE,148,2.0,2.0,70,0.00,,,0.10,Wunderground v.1.15,2013-05-09 22:00:00,
2013-05-09 18:10:00,65.9,56.2,29.92,SE,142,3.0,3.0,71,0.00,,,0.10,Wunderground v.1.15,2013-05-09 22:10:00,
2013-05-09 18:15:00,66.0,56.3,29.92,SE,137,2.0,3.0,71,0.00,,,0.10,Wunderground v.1.15,2013-05-09 22:15:00,
2013-05-09 18:25:00,65.8,55.7,29.92,WSW,248,1.0,2.0,70,0.00,,,0.10,Wunderground v.1.15,2013-05-09 22:25:00,
2013-05-09 18:30:00,65.3,55.7,29.92,South,169,2.0,3.0,71,0.00,,,0.10,Wunderground v.1.15,2013-05-09 22:30:00,
2013-05-09 18:40:00,65.2,55.6,29.92,SW,219,2.0,2.0,71,0.00,,,0.10,Wunderground v.1.15,2013-05-09 22:40:00,
2013-05-09 18:45:00,65.2,55.2,29.92,SW,229,1.0,2.0,70,0.00,,,0.10,Wunderground v.1.15,2013-05-09 22:45:00,
2013-05-09 18:55:00,64.1,54.5,29.92,SW,230,2.0,2.0,71,0.00,,,0.10,Wunderground v.1.15,2013-05-09 22:55:00,
2013-05-09 19:05:00,62.9,53.7,29.92,SSE,159,2.0,4.0,72,0.00,,,0.10,Wunderground v.1.15,2013-05-09 23:05:00,
2013-05-09 19:15:00,62.2,53.4,29.92,SSE,152,2.0,4.0,73,0.00,,,0.10,Wunderground v.1.15,2013-05-09 23:15:00,
2013-05-09 19:25:00,61.6,53.2,29.92,SW,220,2.0,2.0,74,0.00,,,0.10,Wunderground v.1.15,2013-05-09 23:25:00,
2013-05-09 19:35:00,60.9,52.6,29.93,SSE,167,1.0,2.0,74,0.00,,,0.10,Wunderground v.1.15,2013-05-09 23:35:00,
2013-05-09 19:40:00,60.5,52.2,29.92,SE,141,1.0,1.0,74,0.00,,,0.10,Wunderground v.1.15,2013-05-09 23:40:00,
2013-05-09 19:50:00,59.7,51.8,29.92,South,172,1.0,2.0,75,0.00,,,0.10,Wunderground v.1.15,2013-05-09 23:50:00,
2013-05-09 20:01:00,59.1,51.5,29.92,SSE,164,1.0,2.0,76,0.00,,,0.10,Wunderground v.1.15,2013-05-10 00:01:00,
2013-05-09 20:10:00,58.7,51.5,29.92,SW,225,1.0,1.0,77,0.00,,,0.10,Wunderground v.1.15,2013-05-10 00:10:00,
2013-05-09 20:15:00,58.5,51.7,29.92,SE,145,1.0,1.0,78,0.00,,,0.10,Wunderground v.1.15,2013-05-10 00:15:00,
2013-05-09 20:25:00,58.3,51.5,29.92,South,186,1.0,1.0,78,0.00,,,0.10,Wunderground v.1.15,2013-05-10 00:25:00,
2013-05-09 20:35:00,57.9,51.4,29.92,WSW,250,0.0,1.0,79,0.00,,,0.10,Wunderground v.1.15,2013-05-10 00:35:00,
2013-05-09 20:45:00,57.6,51.1,29.93,SSW,205,1.0,2.0,79,0.00,,,0.10,Wunderground v.1.15,2013-05-10 00:45:00,
2013-05-09 20:55:00,57.2,51.1,29.93,SW,226,0.0,0.0,80,0.00,,,0.10,Wunderground v.1.15,2013-05-10 00:55:00,
2013-05-09 21:00:00,57.1,51.0,29.93,SSW,195,1.0,1.0,80,0.00,,,0.10,Wunderground v.1.15,2013-05-10 01:00:00,
2013-05-09 21:10:00,56.8,51.0,29.93,SSE,159,0.0,0.0,81,0.00,,,0.10,Wunderground v.1.15,2013-05-10 01:10:00,
2013-05-09 21:20:00,56.9,51.1,29.94,SSE,150,1.0,1.0,81,0.00,,,0.10,Wunderground v.1.15,2013-05-10 01:20:00,
2013-05-09 21:25:00,56.9,51.1,29.94,SSE,159,0.0,1.0,81,0.00,,,0.10,Wunderground v.1.15,2013-05-10 01:25:00,
2013-05-09 21:35:00,57.0,51.2,29.95,SW,226,0.0,0.0,81,0.00,,,0.10,Wunderground v.1.15,2013-05-10 01:35:00,
2013-05-09 21:40:00,57.0,51.2,29.95,SSW,210,0.0,0.0,81,0.00,,,0.10,Wunderground v.1.15,2013-05-10 01:40:00,
2013-05-09 21:50:00,57.0,50.9,29.95,SSE,150,0.0,1.0,80,0.00,,,0.10,Wunderground v.1.15,2013-05-10 01:50:00,
2013-05-09 21:55:00,57.0,50.9,29.95,South,174,1.0,1.0,80,0.00,,,0.10,Wunderground v.1.15,2013-05-10 01:55:00,
2013-05-09 22:00:00,57.0,50.9,29.95,SSE,158,1.0,1.0,80,0.00,,,0.10,Wunderground v.1.15,2013-05-10 02:00:00,
2013-05-09 22:05:00,57.0,50.9,29.95,South,169,0.0,1.0,80,0.00,,,0.10,Wunderground v.1.15,2013-05-10 02:05:00,
2013-05-09 22:10:00,56.8,51.0,29.95,SW,215,0.0,0.0,81,0.00,,,0.10,Wunderground v.1.15,2013-05-10 02:10:00,
2013-05-09 22:20:00,56.4,51.0,29.95,WSW,252,0.0,0.0,82,0.00,,,0.10,Wunderground v.1.15,2013-05-10 02:20:00,
2013-05-09 22:30:00,56.4,51.0,29.95,SSE,166,0.0,0.0,82,0.00,,,0.10,Wunderground v.1.15,2013-05-10 02:30:00,
2013-05-09 22:40:00,56.5,51.1,29.95,SW,215,0.0,0.0,82,0.00,,,0.10,Wunderground v.1.15,2013-05-10 02:40:00,
2013-05-09 22:45:00,56.5,51.1,29.95,SE,146,0.0,0.0,82,0.00,,,0.10,Wunderground v.1.15,2013-05-10 02:45:00,
2013-05-09 22:55:00,56.2,51.1,29.94,SE,146,0.0,0.0,83,0.00,,,0.10,Wunderground v.1.15,2013-05-10 02:55:00,
2013-05-09 23:01:00,56.1,51.0,29.94,South,190,0.0,1.0,83,0.00,,,0.10,Wunderground v.1.15,2013-05-10 03:01:00,
2013-05-09 23:10:00,56.2,51.1,29.94,SSW,212,0.0,0.0,83,0.00,,,0.10,Wunderground v.1.15,2013-05-10 03:10:00,
2013-05-09 23:15:00,56.1,51.0,29.94,SE,126,0.0,0.0,83,0.00,,,0.10,Wunderground v.1.15,2013-05-10 03:15:00,
2013-05-09 23:20:00,56.1,51.0,29.94,South,186,0.0,0.0,83,0.00,,,0.10,Wunderground v.1.15,2013-05-10 03:20:00,
2013-05-09 23:30:00,56.0,50.9,29.94,South,181,0.0,0.0,83,0.00,,,0.10,Wunderground v.1.15,2013-05-10 03:30:00,
2013-05-09 23:35:00,56.1,51.0,29.94,South,170,0.0,1.0,83,0.00,,,0.10,Wunderground v.1.15,2013-05-10 03:35:00,
2013-05-09 23:45:00,56.5,50.7,29.93,South,169,1.0,1.0,81,0.00,,,0.10,Wunderground v.1.15,2013-05-10 03:45:00,
2013-05-09 23:55:00,56.6,50.8,29.93,SSE,155,0.0,1.0,81,0.00,,,0.10,Wunderground v.1.15,2013-05-10 03:55:00,